Cupertino, CA (95014)

3:28 PM PST on February 10, 2016 (GMT -0800)
Monta Vista | | Change Station
CLOSE
Current Station
Personal Weather Station
Location: Cupertino, CA
Elevation: 535 ft
Nearby Weather Stations

Elev 535 ft 37.30 °N, 122.06 °W | Updated 2 minutes ago

Partly Cloudy
Partly Cloudy
70.7 °F
Feels Like 77 °F
N
0.0
Wind Variable Wind from North
Gusts 2.0 mph

Today
High -- | Low -- °F
--% Chance of Precip.
Yesterday
High -- | Low -- °F
Precip. -- in
Pressure 30.19 in
Visibility 7.0 miles
Clouds Clear
Heat Index 77 °F
Dew Point 50 °F
Humidity 47%
Rainfall 0.00 in
Snow Depth Not available.
7:03 AM 5:42 PM
Waxing Crescent, 8% visible
METAR KNUQ 102256Z 36008KT 7SM CLR 19/11 A3018 RMK AO2 RAB36E45 SLP221 P0000 T01890106
Pressure 30.19 in
Visibility 7.0 miles
Clouds Clear
Heat Index 77 °F
Dew Point 50 °F
Humidity 47%
Rainfall 0.00 in
Snow Depth Not available.
7:03 AM 5:42 PM
Waxing Crescent, 8% visible
METAR KNUQ 102256Z 36008KT 7SM CLR 19/11 A3018 RMK AO2 RAB36E45 SLP221 P0000 T01890106

10-Day Weather Forecast

Almanac

Astronomy

Feb. 10, 2016 Rise Set
Actual Time
Civil Twilight
Nautical Twilight
Astronomical Twilight
Moon
Length of Visible Light
Length of Day
Tomorrow will be .
, % of the Moon is Illuminated

Today's Extremes

State Highs State Lows

Community

WunderPhotos

Upload Photos

1,891,935 photos uploaded!

WunderBlog® & News

Nearby

Air Quality

  Air Quality AQ Index Pollutant
Not available.

Snow Depth

Station Depth Elevation

Earthquake Activity

City Distance Mag. Time & Date
Minimum magnitude displayed is 2.5.

Coastal Water Temperatures

Place Temperature

Stations

Nearby Weather Stations

Station Location Temp. Windchill Dew Point Humidity Wind Precip. Elev Updated Type
                   

Watches & Warnings

There are currently no watches in effect.